Fairport, Missouri
Current Conditions -  °F | °C
As of 1:53 PM on Friday 24 Oct 2014 (Local Time) from KSTJ Reporting Station
Clear Clear  
Wind Chill: 72°   Ceiling: Unl
Heat Index: 72°   Visibility: 10mi
Dew Point: 62°   Wind: 13mph
Humidity: 71%   Direction: 210°SSW
Pressure: 29.96"   Gusts: NA
Location:  39.99°N, 94.35°W
Report Text: KSTJ 241853Z 21011KT 10SM CLR 22/17 A2996 RMK AO2 SLP141 T02220167
Loading
Personal Weather Stations






























Interactive Weather Map
Tropical Storm Tracking
New forecast layout! Learn more

10-Day Weather Forecast

Advertisements
Track Severe Weather on mobile